Terminal Aerodrome Forecast
Issued by NWS

Home | Current Version | Previous Version | Text Only | Print | Product List | Glossary Off
Versions: 1 2 3 4 5 6 7 8 9 10 11 12 13 14 15 16 17 18 19

133
FTUS43 KIWX 211333 AAA
TAFSBN
TAF AMD
KSBN 211333Z 2114/2212 21008KT P6SM FEW040 BKN150
     FM211800 25008KT P6SM SCT040 BKN100
     FM212300 21007KT P6SM VCTS BKN040CB BKN250
     FM220600 21009KT P6SM SHRA VCTS SCT045CB BKN090=

USA.gov is the U.S. government's official web portal to all federal, state and local government web resources and services.